createdAt,value
2024-05-09T00:00:39.058Z,69.62
2024-05-09T00:01:33.764Z,70.12
2024-05-09T00:02:32.702Z,69.93
2024-05-09T00:03:32.768Z,70.10
2024-05-09T00:04:32.759Z,70.79
2024-05-09T00:05:32.840Z,70.66
2024-05-09T00:06:32.714Z,70.67
2024-05-09T00:07:32.748Z,70.96
2024-05-09T00:08:32.744Z,71.18
2024-05-09T00:09:32.720Z,70.94
2024-05-09T00:10:37.194Z,70.44
2024-05-09T00:11:33.833Z,70.01
2024-05-09T00:12:32.775Z,70.53
2024-05-09T00:13:32.767Z,70.35
2024-05-09T00:14:32.853Z,70.18
2024-05-09T00:15:32.768Z,70.10
2024-05-09T00:16:32.770Z,70.20
2024-05-09T00:17:32.961Z,70.15
2024-05-09T00:18:32.915Z,70.20
2024-05-09T00:19:32.888Z,69.60
2024-05-09T00:20:38.042Z,69.37
2024-05-09T00:21:33.790Z,69.16
2024-05-09T00:22:32.807Z,69.09
2024-05-09T00:23:33.019Z,69.02
2024-05-09T00:24:32.789Z,69.97
2024-05-09T00:25:32.792Z,70.06
2024-05-09T00:26:32.875Z,71.84
2024-05-09T00:27:32.801Z,71.84
2024-05-09T00:28:32.790Z,72.02
2024-05-09T00:29:32.955Z,71.99
2024-05-09T00:30:35.488Z,72.54
2024-05-09T00:31:32.791Z,71.88
2024-05-09T00:32:33.063Z,73.03
2024-05-09T00:33:32.907Z,72.88
2024-05-09T00:34:32.822Z,72.17
2024-05-09T00:35:32.953Z,72.34
2024-05-09T00:36:32.833Z,71.82
2024-05-09T00:37:32.820Z,71.47
2024-05-09T00:38:32.905Z,71.32
2024-05-09T00:39:32.823Z,71.18
2024-05-09T00:40:38.926Z,70.96
2024-05-09T00:41:33.927Z,70.60
2024-05-09T00:42:32.830Z,70.46
2024-05-09T00:43:32.905Z,70.60
2024-05-09T00:44:32.857Z,70.34
2024-05-09T00:45:32.835Z,70.26
2024-05-09T00:46:32.825Z,70.08
2024-05-09T00:47:32.999Z,69.71
2024-05-09T00:48:32.981Z,69.93
2024-05-09T00:49:32.951Z,69.65
2024-05-09T00:50:36.492Z,69.44
2024-05-09T00:51:32.836Z,70.34
2024-05-09T00:52:32.830Z,69.86
2024-05-09T00:53:32.908Z,69.61
2024-05-09T00:54:32.830Z,69.66
2024-05-09T00:55:32.850Z,69.42
2024-05-09T00:56:32.859Z,69.24
2024-05-09T00:57:32.847Z,69.20
2024-05-09T00:58:32.858Z,69.50
2024-05-09T00:59:32.868Z,69.35
2024-05-09T01:00:38.693Z,69.54
2024-05-09T01:01:33.973Z,69.79
2024-05-09T01:02:32.961Z,69.49
2024-05-09T01:03:33.067Z,69.99
2024-05-09T01:04:32.860Z,70.55
2024-05-09T01:05:32.937Z,69.71
2024-05-09T01:06:32.850Z,69.44
2024-05-09T01:07:32.848Z,69.41
2024-05-09T01:08:32.911Z,69.96
2024-05-09T01:09:32.833Z,69.91
2024-05-09T01:10:35.111Z,71.17
2024-05-09T01:11:32.968Z,70.80
2024-05-09T01:12:32.913Z,71.81
2024-05-09T01:13:32.849Z,71.58
2024-05-09T01:14:32.866Z,71.20
2024-05-09T01:15:32.867Z,71.79
2024-05-09T01:16:32.842Z,71.31
2024-05-09T01:17:32.924Z,71.52
2024-05-09T01:18:32.914Z,71.15
2024-05-09T01:19:33.021Z,71.74
2024-05-09T01:20:40.916Z,72.40
2024-05-09T01:21:33.870Z,71.44
2024-05-09T01:22:32.847Z,71.77
2024-05-09T01:23:32.928Z,71.75
2024-05-09T01:24:32.848Z,71.55
2024-05-09T01:25:32.857Z,71.21
2024-05-09T01:26:32.925Z,71.17
2024-05-09T01:27:32.863Z,70.88
2024-05-09T01:28:32.892Z,70.67
2024-05-09T01:29:32.861Z,70.47
2024-05-09T01:30:35.804Z,71.04
2024-05-09T01:31:32.899Z,70.63
2024-05-09T01:32:32.974Z,71.17
2024-05-09T01:33:33.398Z,70.89
2024-05-09T01:34:32.875Z,70.65
2024-05-09T01:35:32.899Z,70.81
2024-05-09T01:36:32.875Z,71.01
2024-05-09T01:37:32.910Z,70.33
2024-05-09T01:38:33.076Z,70.65
2024-05-09T01:39:32.881Z,70.73
2024-05-09T01:40:37.560Z,70.51
2024-05-09T01:41:33.982Z,70.38
2024-05-09T01:42:32.878Z,70.48
2024-05-09T01:43:32.881Z,70.05
2024-05-09T01:44:32.941Z,69.64
2024-05-09T01:45:33.052Z,69.73
2024-05-09T01:46:32.932Z,69.57
2024-05-09T01:47:33.122Z,69.46
2024-05-09T01:48:32.943Z,69.37
2024-05-09T01:49:32.931Z,69.34
2024-05-09T01:50:38.981Z,69.49
2024-05-09T01:51:33.916Z,69.57
2024-05-09T01:52:32.930Z,69.05
2024-05-09T01:53:33.014Z,68.98
2024-05-09T01:54:32.935Z,68.93
2024-05-09T01:55:32.915Z,68.54
2024-05-09T01:56:33.079Z,68.26
2024-05-09T01:57:32.924Z,68.03
2024-05-09T01:58:32.970Z,68.21
2024-05-09T01:59:33.094Z,67.80
2024-05-09T02:00:38.996Z,67.81
2024-05-09T02:01:55.483Z,68.38
2024-05-09T02:02:34.019Z,68.07
2024-05-09T02:03:33.045Z,67.99
2024-05-09T02:04:32.967Z,67.89
2024-05-09T02:05:32.986Z,68.26
2024-05-09T02:06:32.952Z,68.14
2024-05-09T02:07:33.239Z,68.57
2024-05-09T02:08:33.122Z,68.75
2024-05-09T02:09:32.925Z,69.12
2024-05-09T02:10:33.561Z,68.80
2024-05-09T02:11:32.996Z,69.42
2024-05-09T02:12:33.101Z,69.10
2024-05-09T02:13:32.978Z,69.13
2024-05-09T02:14:32.963Z,68.75
2024-05-09T02:15:32.937Z,69.01
2024-05-09T02:16:32.954Z,70.01
2024-05-09T02:17:33.058Z,69.29
2024-05-09T02:18:33.055Z,69.18
2024-05-09T02:19:33.257Z,69.18
2024-05-09T02:20:36.367Z,69.38
2024-05-09T02:21:32.984Z,69.55
2024-05-09T02:22:32.993Z,69.35
2024-05-09T02:23:33.061Z,69.24
2024-05-09T02:24:32.979Z,68.98
2024-05-09T02:25:33.144Z,68.96
2024-05-09T02:26:32.991Z,69.11
2024-05-09T02:27:32.964Z,68.96
2024-05-09T02:28:32.959Z,68.67
2024-05-09T02:29:33.082Z,68.77
2024-05-09T02:30:39.103Z,68.76
2024-05-09T02:31:33.997Z,69.02
2024-05-09T02:32:33.162Z,68.80
2024-05-09T02:33:33.394Z,68.50
2024-05-09T02:34:33.076Z,68.51
2024-05-09T02:35:33.071Z,68.05
2024-05-09T02:36:32.994Z,68.05
2024-05-09T02:37:32.992Z,67.90
2024-05-09T02:38:33.098Z,67.72
2024-05-09T02:39:32.999Z,67.72
2024-05-09T02:40:37.194Z,67.62
2024-05-09T02:41:34.013Z,67.65
2024-05-09T02:42:33.005Z,67.86
2024-05-09T02:43:33.018Z,67.50
2024-05-09T02:44:33.029Z,67.38
2024-05-09T02:45:33.188Z,67.27
2024-05-09T02:46:33.028Z,67.29
2024-05-09T02:47:33.177Z,67.71
2024-05-09T02:48:33.193Z,67.77
2024-05-09T02:49:33.090Z,67.92
2024-05-09T02:50:38.068Z,68.32
2024-05-09T02:51:34.042Z,69.40
2024-05-09T02:52:33.031Z,69.58
2024-05-09T02:53:33.073Z,69.50
2024-05-09T02:54:33.028Z,70.08
2024-05-09T02:55:33.235Z,69.38
2024-05-09T02:56:33.096Z,69.84
2024-05-09T02:57:33.037Z,69.57
2024-05-09T02:58:33.015Z,69.83
2024-05-09T02:59:33.061Z,70.80
2024-05-09T03:00:38.966Z,70.10
2024-05-09T03:01:34.129Z,69.95
2024-05-09T03:02:33.205Z,70.02
2024-05-09T03:03:33.288Z,69.73
2024-05-09T03:04:33.160Z,69.42
2024-05-09T03:05:33.266Z,69.13
2024-05-09T03:06:33.051Z,69.13
2024-05-09T03:07:33.041Z,69.10
2024-05-09T03:08:33.143Z,68.98
2024-05-09T03:09:33.058Z,69.26
2024-05-09T03:10:36.380Z,69.34
2024-05-09T03:11:34.162Z,69.16
2024-05-09T03:12:34.065Z,68.99
2024-05-09T03:13:33.052Z,68.84
2024-05-09T03:14:33.106Z,69.06
2024-05-09T03:15:33.292Z,68.90
2024-05-09T03:16:33.085Z,69.13
2024-05-09T03:17:33.323Z,69.06
2024-05-09T03:18:33.159Z,69.13
2024-05-09T03:19:33.202Z,68.89
2024-05-09T03:20:35.415Z,68.75
2024-05-09T03:21:33.107Z,69.41
2024-05-09T03:22:33.092Z,69.17
2024-05-09T03:23:33.117Z,68.73
2024-05-09T03:24:33.104Z,68.66
2024-05-09T03:25:33.116Z,68.66
2024-05-09T03:26:33.116Z,68.22
2024-05-09T03:27:33.106Z,68.29
2024-05-09T03:28:33.116Z,68.11
2024-05-09T03:29:33.167Z,68.11
2024-05-09T03:30:40.511Z,68.35
2024-05-09T03:31:34.107Z,67.95
2024-05-09T03:32:33.256Z,67.70
2024-05-09T03:33:33.332Z,67.71
2024-05-09T03:34:33.127Z,67.89
2024-05-09T03:35:33.155Z,67.81
2024-05-09T03:36:33.108Z,67.77
2024-05-09T03:37:33.162Z,67.47
2024-05-09T03:38:33.228Z,67.58
2024-05-09T03:39:33.127Z,67.32
2024-05-09T03:40:33.130Z,67.16
2024-05-09T03:41:33.299Z,66.74
2024-05-09T03:42:33.140Z,66.84
2024-05-09T03:43:33.120Z,66.56
2024-05-09T03:44:33.233Z,66.51
2024-05-09T03:45:33.210Z,66.64
2024-05-09T03:46:33.225Z,67.02
2024-05-09T03:47:33.411Z,67.38
2024-05-09T03:48:33.350Z,67.32
2024-05-09T03:49:33.423Z,67.35
2024-05-09T03:50:35.642Z,67.34
2024-05-09T03:51:33.312Z,67.35
2024-05-09T03:52:33.349Z,67.40
2024-05-09T03:53:33.501Z,67.96
2024-05-09T03:54:33.349Z,67.72
2024-05-09T03:55:33.346Z,67.77
2024-05-09T03:56:33.352Z,68.02
2024-05-09T03:57:33.353Z,68.75
2024-05-09T03:58:33.334Z,69.53
2024-05-09T03:59:33.395Z,69.77
2024-05-09T04:00:38.104Z,70.33
2024-05-09T04:01:34.424Z,69.88
2024-05-09T04:02:33.437Z,70.17
2024-05-09T04:03:33.525Z,69.86
2024-05-09T04:04:33.451Z,69.99
2024-05-09T04:05:33.487Z,70.12
2024-05-09T04:06:33.362Z,69.77
2024-05-09T04:07:33.375Z,69.62
2024-05-09T04:08:33.510Z,69.98
2024-05-09T04:09:33.377Z,70.65
2024-05-09T04:10:34.911Z,70.63
2024-05-09T04:11:33.481Z,70.92
2024-05-09T04:12:33.451Z,70.74
2024-05-09T04:13:33.361Z,70.74
2024-05-09T04:14:33.428Z,70.11
2024-05-09T04:15:33.439Z,70.68
2024-05-09T04:16:33.369Z,70.58
2024-05-09T04:17:33.548Z,70.38
2024-05-09T04:18:33.660Z,69.92
2024-05-09T04:19:33.658Z,70.20
2024-05-09T04:20:38.677Z,69.97
2024-05-09T04:21:34.600Z,69.68
2024-05-09T04:22:33.604Z,70.66
2024-05-09T04:23:33.806Z,70.64
2024-05-09T04:24:33.604Z,71.08
2024-05-09T04:25:33.654Z,70.63
2024-05-09T04:26:33.689Z,70.63
2024-05-09T04:27:33.619Z,69.90
2024-05-09T04:28:33.622Z,69.71
2024-05-09T04:29:33.693Z,69.78
2024-05-09T04:30:38.278Z,69.47
2024-05-09T04:31:34.626Z,68.93
2024-05-09T04:32:33.732Z,68.68
2024-05-09T04:33:33.825Z,68.86
2024-05-09T04:34:33.793Z,68.42
2024-05-09T04:35:33.685Z,68.19
2024-05-09T04:36:33.638Z,67.85
2024-05-09T04:37:33.652Z,67.85
2024-05-09T04:38:33.789Z,67.90
2024-05-09T04:39:41.327Z,67.53
2024-05-09T04:40:41.376Z,67.89
2024-05-09T04:41:41.494Z,68.36
2024-05-09T04:42:41.514Z,68.27
2024-05-09T04:43:41.569Z,68.01
2024-05-09T04:44:41.603Z,67.70
2024-05-09T04:45:41.683Z,67.64
2024-05-09T04:46:41.738Z,67.73
2024-05-09T04:47:41.967Z,67.43
2024-05-09T04:48:41.975Z,67.57
2024-05-09T04:49:41.909Z,67.77
2024-05-09T04:50:42.024Z,67.60
2024-05-09T04:51:42.005Z,68.26
2024-05-09T04:52:42.057Z,68.19
2024-05-09T04:53:42.126Z,67.90
2024-05-09T04:54:42.158Z,67.90
2024-05-09T04:55:42.221Z,67.35
2024-05-09T04:56:42.339Z,67.22
2024-05-09T04:57:42.366Z,67.50
2024-05-09T04:58:42.432Z,67.42
2024-05-09T04:59:42.437Z,67.86
2024-05-09T05:00:42.604Z,67.66
2024-05-09T05:01:42.590Z,67.72
2024-05-09T05:02:42.766Z,67.75
2024-05-09T05:03:42.911Z,68.53
2024-05-09T05:04:42.878Z,68.03
2024-05-09T05:05:43.413Z,68.30
2024-05-09T05:06:42.858Z,67.91
2024-05-09T05:07:42.899Z,68.45
2024-05-09T05:08:43.005Z,68.71
2024-05-09T05:09:42.996Z,68.57
2024-05-09T05:10:43.084Z,68.27
2024-05-09T05:11:43.170Z,67.92
2024-05-09T05:12:43.111Z,67.69
2024-05-09T05:13:43.182Z,67.57
2024-05-09T05:14:43.205Z,67.43
2024-05-09T05:15:43.252Z,67.09
2024-05-09T05:16:43.285Z,66.87
2024-05-09T05:17:43.596Z,66.64
2024-05-09T05:18:43.457Z,66.49
2024-05-09T05:19:43.603Z,66.29
2024-05-09T05:20:43.632Z,66.28
2024-05-09T05:21:43.567Z,66.15
2024-05-09T05:22:43.599Z,66.01
2024-05-09T05:23:43.659Z,65.83
2024-05-09T05:24:43.633Z,65.78
2024-05-09T05:25:43.730Z,65.76
2024-05-09T05:26:43.713Z,65.64
2024-05-09T05:27:43.703Z,65.56
2024-05-09T05:28:43.714Z,65.61
2024-05-09T05:29:43.839Z,65.55
2024-05-09T05:30:43.850Z,65.51
2024-05-09T05:31:43.932Z,65.25
2024-05-09T05:32:44.088Z,65.31
2024-05-09T05:33:44.063Z,65.28
2024-05-09T05:34:44.043Z,65.19
2024-05-09T05:35:44.112Z,65.26
2024-05-09T05:36:44.081Z,65.20
2024-05-09T05:37:44.157Z,65.07
2024-05-09T05:38:44.306Z,65.25
2024-05-09T05:39:44.172Z,65.44
2024-05-09T05:40:44.335Z,65.81
2024-05-09T05:41:44.287Z,65.59
2024-05-09T05:42:44.300Z,65.46
2024-05-09T05:43:44.449Z,65.40
2024-05-09T05:44:44.354Z,65.25
2024-05-09T05:45:44.442Z,65.47
2024-05-09T05:46:44.509Z,65.13
2024-05-09T05:47:44.780Z,64.72
2024-05-09T05:48:44.599Z,64.49
2024-05-09T05:49:44.514Z,64.57
2024-05-09T05:50:44.676Z,64.35
2024-05-09T05:51:44.625Z,63.97
2024-05-09T05:52:44.762Z,63.66
2024-05-09T05:53:44.774Z,63.47
2024-05-09T05:54:44.727Z,63.11
2024-05-09T05:55:44.836Z,62.98
2024-05-09T05:56:44.912Z,62.63
2024-05-09T05:57:44.906Z,62.50
2024-05-09T05:58:45.145Z,62.42
2024-05-09T05:59:45.061Z,61.84
2024-05-09T06:00:45.218Z,61.61
2024-05-09T06:01:45.159Z,61.26
2024-05-09T06:02:45.327Z,61.26
2024-05-09T06:03:45.304Z,61.19
2024-05-09T06:04:45.366Z,60.61
2024-05-09T06:05:45.270Z,60.47
2024-05-09T06:06:45.332Z,60.27
2024-05-09T06:07:45.403Z,60.31
2024-05-09T06:08:45.510Z,60.40
2024-05-09T06:09:47.611Z,60.02
2024-05-09T06:10:45.514Z,59.90
2024-05-09T06:11:45.603Z,59.70
2024-05-09T06:12:45.447Z,59.63
2024-05-09T06:13:45.506Z,59.32
2024-05-09T06:14:45.419Z,59.19
2024-05-09T06:15:45.431Z,58.94
2024-05-09T06:16:45.465Z,58.53
2024-05-09T06:17:45.743Z,58.73
2024-05-09T06:18:45.563Z,58.92
2024-05-09T06:19:45.587Z,58.80
2024-05-09T06:20:45.486Z,59.59
2024-05-09T06:21:45.453Z,59.76
2024-05-09T06:22:45.441Z,59.67
2024-05-09T06:23:45.494Z,59.63
2024-05-09T06:24:45.449Z,59.47
2024-05-09T06:25:45.471Z,59.17
2024-05-09T06:26:45.440Z,58.83
2024-05-09T06:27:45.530Z,59.06
2024-05-09T06:28:45.499Z,58.78
2024-05-09T06:29:45.448Z,58.67
2024-05-09T06:30:45.493Z,58.43
2024-05-09T06:31:45.530Z,58.28
2024-05-09T06:32:45.567Z,58.27
2024-05-09T06:33:45.585Z,58.26
2024-05-09T06:34:45.628Z,58.26
2024-05-09T06:35:45.542Z,58.12
2024-05-09T06:36:45.463Z,58.12
2024-05-09T06:37:45.486Z,57.85
2024-05-09T06:38:45.539Z,57.72
2024-05-09T06:39:45.471Z,57.64
2024-05-09T06:40:45.786Z,57.31
2024-05-09T06:41:45.463Z,57.43
2024-05-09T06:42:45.474Z,56.93
2024-05-09T06:43:45.540Z,55.89
2024-05-09T06:44:45.525Z,55.89
2024-05-09T06:45:45.486Z,55.92
2024-05-09T06:46:45.714Z,55.74
2024-05-09T06:47:45.568Z,55.06
2024-05-09T06:48:45.849Z,54.99
2024-05-09T06:49:45.547Z,54.67
2024-05-09T06:50:45.622Z,54.44
2024-05-09T06:51:45.484Z,54.65
2024-05-09T06:52:45.554Z,54.48
2024-05-09T06:53:45.613Z,54.03
2024-05-09T06:54:45.624Z,53.82
2024-05-09T06:55:45.729Z,53.56
2024-05-09T06:56:45.682Z,53.19
2024-05-09T06:57:45.688Z,53.36
2024-05-09T06:58:45.780Z,53.72
2024-05-09T06:59:45.774Z,54.13
2024-05-09T07:00:45.911Z,54.66
2024-05-09T07:01:45.938Z,54.64
2024-05-09T07:02:46.068Z,54.75
2024-05-09T07:03:46.085Z,54.66
2024-05-09T07:04:46.100Z,54.50
2024-05-09T07:05:47.084Z,54.38
2024-05-09T07:06:46.107Z,54.30
2024-05-09T07:07:46.264Z,54.10
2024-05-09T07:08:47.409Z,54.58
2024-05-09T07:09:46.304Z,54.66
2024-05-09T07:10:46.586Z,54.91
2024-05-09T07:11:46.518Z,54.71
2024-05-09T07:12:46.462Z,54.71
2024-05-09T07:13:46.527Z,54.66
2024-05-09T07:14:46.606Z,54.51
2024-05-09T07:15:46.542Z,54.95
2024-05-09T07:16:46.702Z,55.02
2024-05-09T07:17:46.821Z,55.11
2024-05-09T07:18:46.920Z,55.30
2024-05-09T07:19:46.856Z,55.58
2024-05-09T07:20:47.394Z,55.46
2024-05-09T07:21:46.886Z,55.23
2024-05-09T07:22:46.925Z,54.76
2024-05-09T07:23:47.551Z,54.54
2024-05-09T07:24:47.064Z,54.12
2024-05-09T07:25:47.332Z,54.32
2024-05-09T07:26:47.217Z,54.25
2024-05-09T07:27:47.236Z,53.95
2024-05-09T07:28:47.327Z,53.74
2024-05-09T07:29:47.406Z,53.52
2024-05-09T07:30:47.354Z,53.83
2024-05-09T07:31:47.409Z,53.88
2024-05-09T07:32:47.853Z,53.78
2024-05-09T07:33:47.522Z,53.51
2024-05-09T07:34:47.502Z,53.62
2024-05-09T07:35:47.590Z,53.47
2024-05-09T07:36:47.548Z,53.46
2024-05-09T07:37:47.621Z,53.38
2024-05-09T07:38:47.732Z,53.22
2024-05-09T07:39:47.688Z,53.14
2024-05-09T07:40:47.838Z,52.77
2024-05-09T07:41:47.810Z,52.88
2024-05-09T07:42:47.832Z,53.08
2024-05-09T07:43:47.891Z,52.83
2024-05-09T07:44:47.937Z,52.63
2024-05-09T07:45:53.093Z,52.39
2024-05-09T07:47:48.786Z,52.20
2024-05-09T07:49:13.626Z,51.91
2024-05-09T07:53:17.300Z,52.54
2024-05-09T07:53:34.820Z,52.63
2024-05-09T07:53:52.210Z,52.37
2024-05-09T07:54:49.276Z,52.03
2024-05-09T07:55:48.059Z,51.55
2024-05-09T07:56:48.079Z,51.32
2024-05-09T07:57:48.027Z,51.41
2024-05-09T07:58:47.975Z,51.67
2024-05-09T07:59:47.976Z,51.70
2024-05-09T08:00:48.176Z,51.51
2024-05-09T08:01:48.059Z,51.03
2024-05-09T08:02:48.048Z,51.06
2024-05-09T08:03:48.195Z,51.33
2024-05-09T08:04:48.164Z,50.70
2024-05-09T08:05:48.032Z,49.76
2024-05-09T08:06:48.068Z,49.57
2024-05-09T08:07:48.012Z,50.00
2024-05-09T08:08:47.987Z,50.60
2024-05-09T08:09:48.025Z,50.45
2024-05-09T08:10:48.066Z,50.08
2024-05-09T08:11:48.024Z,50.22
2024-05-09T08:12:48.037Z,50.39
2024-05-09T08:13:48.044Z,49.60
2024-05-09T08:14:47.995Z,49.83
2024-05-09T08:15:48.055Z,49.65
2024-05-09T08:16:48.044Z,49.42
2024-05-09T08:17:48.115Z,48.99
2024-05-09T08:18:48.094Z,49.09
2024-05-09T08:19:48.083Z,49.58
2024-05-09T08:20:48.012Z,49.56
2024-05-09T08:21:48.053Z,49.12
2024-05-09T08:22:48.037Z,49.20
2024-05-09T08:23:48.018Z,49.28
2024-05-09T08:24:48.059Z,49.21
2024-05-09T08:25:48.120Z,48.75
2024-05-09T08:26:48.146Z,48.93
2024-05-09T08:27:48.176Z,49.01
2024-05-09T08:28:48.186Z,49.17
2024-05-09T08:29:48.267Z,49.01
2024-05-09T08:30:48.563Z,48.94
2024-05-09T08:31:48.390Z,48.52
2024-05-09T08:32:48.541Z,48.30
2024-05-09T08:33:48.756Z,48.40
2024-05-09T08:34:48.425Z,47.77
2024-05-09T08:35:48.425Z,47.79
2024-05-09T08:36:48.502Z,48.70
2024-05-09T08:37:48.578Z,47.48
2024-05-09T08:38:48.545Z,47.08
2024-05-09T08:39:48.683Z,47.42
2024-05-09T08:40:48.776Z,47.31
2024-05-09T08:41:48.664Z,47.24
2024-05-09T08:42:48.792Z,47.05
2024-05-09T08:43:48.763Z,47.18
2024-05-09T08:44:48.846Z,47.23
2024-05-09T08:45:48.868Z,47.22
2024-05-09T08:46:48.880Z,47.24
2024-05-09T08:47:48.924Z,47.64
2024-05-09T08:48:49.063Z,47.28
2024-05-09T08:49:49.042Z,47.29
2024-05-09T08:50:49.164Z,46.58
2024-05-09T08:51:49.146Z,46.52
2024-05-09T08:52:49.192Z,45.68
2024-05-09T08:53:49.263Z,45.23
2024-05-09T08:54:49.338Z,45.18
2024-05-09T08:55:49.323Z,46.68
2024-05-09T08:56:49.376Z,46.00
2024-05-09T08:57:49.465Z,46.27
2024-05-09T08:58:49.571Z,46.86
2024-05-09T08:59:49.519Z,46.47
2024-05-09T09:00:49.996Z,45.19
2024-05-09T09:01:49.684Z,45.38
2024-05-09T09:02:49.754Z,45.90
2024-05-09T09:03:49.870Z,45.76
2024-05-09T09:04:50.136Z,45.27
2024-05-09T09:05:49.823Z,45.45
2024-05-09T09:06:49.896Z,45.10
2024-05-09T09:07:49.955Z,45.14
2024-05-09T09:08:49.948Z,45.01
2024-05-09T09:09:50.027Z,44.94
2024-05-09T09:10:50.092Z,43.92
2024-05-09T09:11:50.140Z,44.01
2024-05-09T09:12:50.197Z,43.98
2024-05-09T09:13:50.167Z,44.15
2024-05-09T09:14:50.174Z,44.06
2024-05-09T09:15:50.351Z,43.66
2024-05-09T09:16:50.273Z,43.58
2024-05-09T09:17:50.450Z,42.61
2024-05-09T09:18:50.588Z,42.43
2024-05-09T09:19:50.442Z,41.61
2024-05-09T09:20:50.497Z,41.50
2024-05-09T09:21:50.623Z,41.76
2024-05-09T09:22:50.567Z,41.64
2024-05-09T09:23:50.586Z,41.98
2024-05-09T09:24:50.653Z,42.90
2024-05-09T09:25:50.803Z,42.42
2024-05-09T09:26:50.721Z,41.66
2024-05-09T09:27:50.827Z,41.31
2024-05-09T09:28:50.855Z,41.05
2024-05-09T09:29:50.903Z,41.17
2024-05-09T09:30:51.080Z,41.42
2024-05-09T09:31:51.350Z,41.52
2024-05-09T09:32:51.073Z,41.79
2024-05-09T09:33:51.306Z,41.90
2024-05-09T09:34:51.127Z,41.85
2024-05-09T09:35:51.104Z,41.76
2024-05-09T09:36:51.226Z,41.92
2024-05-09T09:37:51.192Z,41.45
2024-05-09T09:38:51.263Z,41.38
2024-05-09T09:39:51.341Z,41.28
2024-05-09T09:40:51.485Z,41.09
2024-05-09T09:41:51.410Z,41.13
2024-05-09T09:42:51.564Z,40.85
2024-05-09T09:43:51.554Z,41.53
2024-05-09T09:45:01.824Z,41.99
2024-05-09T09:45:53.528Z,42.03
2024-05-09T09:46:51.635Z,42.59
2024-05-09T09:47:51.718Z,42.03
2024-05-09T09:48:51.788Z,41.62
2024-05-09T09:49:51.723Z,41.96
2024-05-09T09:50:51.740Z,41.70
2024-05-09T09:51:51.774Z,41.81
2024-05-09T09:52:51.734Z,41.96
2024-05-09T09:53:51.769Z,42.11
2024-05-09T09:54:51.938Z,41.95
2024-05-09T09:55:51.865Z,41.90
2024-05-09T09:56:51.946Z,41.93
2024-05-09T09:57:52.075Z,41.35
2024-05-09T09:58:52.008Z,41.58
2024-05-09T09:59:52.056Z,41.51
2024-05-09T10:00:52.212Z,41.32
2024-05-09T10:01:52.229Z,41.80
2024-05-09T10:02:52.249Z,41.37
2024-05-09T10:03:52.458Z,42.03
2024-05-09T10:04:52.412Z,41.84
2024-05-09T10:05:52.385Z,41.92
2024-05-09T10:06:52.368Z,41.42
2024-05-09T10:07:52.389Z,41.28
2024-05-09T10:08:52.446Z,41.42
2024-05-09T10:09:52.469Z,41.47
2024-05-09T10:10:52.778Z,41.32
2024-05-09T10:11:59.575Z,41.05
2024-05-09T10:12:53.603Z,41.60
2024-05-09T10:13:52.535Z,41.77
2024-05-09T10:14:52.564Z,41.54
2024-05-09T10:15:52.931Z,41.18
2024-05-09T10:16:52.560Z,41.27
2024-05-09T10:17:52.673Z,40.52
2024-05-09T10:18:52.825Z,40.65
2024-05-09T10:19:52.723Z,40.73
2024-05-09T10:20:52.558Z,40.55
2024-05-09T10:21:52.631Z,40.78
2024-05-09T10:22:52.540Z,40.62
2024-05-09T10:23:52.581Z,40.41
2024-05-09T10:24:52.627Z,40.46
2024-05-09T10:25:52.575Z,40.58
2024-05-09T10:26:52.554Z,40.33
2024-05-09T10:27:52.566Z,40.20
2024-05-09T10:28:52.591Z,40.01
2024-05-09T10:29:52.580Z,39.91
2024-05-09T10:30:52.639Z,39.83
2024-05-09T10:31:52.658Z,40.11
2024-05-09T10:32:52.753Z,40.31
2024-05-09T10:33:53.320Z,40.46
2024-05-09T10:34:52.758Z,40.61
2024-05-09T10:35:52.753Z,40.48
2024-05-09T10:36:52.884Z,40.36
2024-05-09T10:37:52.951Z,40.14
2024-05-09T10:38:52.979Z,40.24
2024-05-09T10:39:53.106Z,39.95
2024-05-09T10:40:53.076Z,40.63
2024-05-09T10:41:53.118Z,40.22
2024-05-09T10:42:53.186Z,39.69
2024-05-09T10:43:53.238Z,40.18
2024-05-09T10:44:53.264Z,39.76
2024-05-09T10:45:53.486Z,40.36
2024-05-09T10:46:53.425Z,40.90
2024-05-09T10:47:53.552Z,40.35
2024-05-09T10:48:53.666Z,40.42
2024-05-09T10:49:53.742Z,39.95
2024-05-09T10:50:53.632Z,39.62
2024-05-09T10:51:53.746Z,39.51
2024-05-09T10:52:53.744Z,39.25
2024-05-09T10:53:53.791Z,39.13
2024-05-09T10:54:53.850Z,37.99
2024-05-09T10:55:53.868Z,36.59
2024-05-09T10:56:53.901Z,38.02
2024-05-09T10:57:53.986Z,38.49
2024-05-09T10:58:53.942Z,38.89
2024-05-09T10:59:53.970Z,38.78
2024-05-09T11:00:54.163Z,38.51
2024-05-09T11:01:54.230Z,38.00
2024-05-09T11:02:54.188Z,38.33
2024-05-09T11:03:54.411Z,38.68
2024-05-09T11:04:54.283Z,38.66
2024-05-09T11:05:54.338Z,38.51
2024-05-09T11:06:54.376Z,38.46
2024-05-09T11:07:54.354Z,38.11
2024-05-09T11:08:54.388Z,38.31
2024-05-09T11:09:54.452Z,38.34
2024-05-09T11:10:54.546Z,38.51
2024-05-09T11:11:54.554Z,38.21
2024-05-09T11:12:54.533Z,37.34
2024-05-09T11:13:54.528Z,37.02
2024-05-09T11:14:54.546Z,37.14
2024-05-09T11:15:54.782Z,37.37
2024-05-09T11:16:54.604Z,37.60
2024-05-09T11:17:54.787Z,37.29
2024-05-09T11:18:55.110Z,37.47
2024-05-09T11:19:54.812Z,38.11
2024-05-09T11:20:54.787Z,37.63
2024-05-09T11:21:54.853Z,37.69
2024-05-09T11:23:11.903Z,37.54
2024-05-09T11:24:11.971Z,37.61
2024-05-09T11:25:12.013Z,37.64
2024-05-09T11:26:11.888Z,36.91
2024-05-09T11:27:11.947Z,36.33
2024-05-09T11:28:11.997Z,36.32
2024-05-09T11:29:12.244Z,36.49
2024-05-09T11:30:20.828Z,36.02
2024-05-09T11:31:12.951Z,35.90
2024-05-09T11:32:11.998Z,35.88
2024-05-09T11:33:11.982Z,35.62
2024-05-09T11:34:11.969Z,35.65
2024-05-09T11:35:11.915Z,35.52
2024-05-09T11:36:11.915Z,36.61
2024-05-09T11:37:12.041Z,36.32
2024-05-09T11:38:11.943Z,35.77
2024-05-09T11:39:11.953Z,35.57
2024-05-09T11:40:20.733Z,35.73
2024-05-09T11:41:12.950Z,35.64
2024-05-09T11:42:11.971Z,35.63
2024-05-09T11:43:12.132Z,36.22
2024-05-09T11:44:11.937Z,35.94
2024-05-09T11:45:11.956Z,35.97
2024-05-09T11:46:12.119Z,35.91
2024-05-09T11:47:12.006Z,35.67
2024-05-09T11:48:12.046Z,35.33
2024-05-09T11:49:12.195Z,35.61
2024-05-09T11:50:19.139Z,35.15
2024-05-09T11:51:12.974Z,35.09
2024-05-09T11:52:12.034Z,35.27
2024-05-09T11:53:11.979Z,35.76
2024-05-09T11:54:12.006Z,35.41
2024-05-09T11:55:12.014Z,34.86
2024-05-09T11:56:12.023Z,35.19
2024-05-09T11:57:11.980Z,35.47
2024-05-09T11:58:12.060Z,37.66
2024-05-09T11:59:11.993Z,35.50
2024-05-09T12:00:14.934Z,35.32
2024-05-09T12:01:13.075Z,36.27
2024-05-09T12:02:12.143Z,36.15
2024-05-09T12:03:12.038Z,36.31
2024-05-09T12:04:12.258Z,35.87
2024-05-09T12:05:12.122Z,35.16
2024-05-09T12:06:12.053Z,35.40
2024-05-09T12:07:13.130Z,35.64
2024-05-09T12:08:12.014Z,36.61
2024-05-09T12:09:12.004Z,36.28
2024-05-09T12:10:16.794Z,35.98
2024-05-09T12:11:13.142Z,36.32
2024-05-09T12:12:12.014Z,36.37
2024-05-09T12:13:12.057Z,36.49
2024-05-09T12:14:12.050Z,36.43
2024-05-09T12:15:12.036Z,36.68
2024-05-09T12:16:12.077Z,36.87
2024-05-09T12:17:12.085Z,36.96
2024-05-09T12:18:12.085Z,36.06
2024-05-09T12:19:12.104Z,36.84
2024-05-09T12:20:20.943Z,36.29
2024-05-09T12:21:13.037Z,36.78
2024-05-09T12:22:12.136Z,37.74
2024-05-09T12:23:12.099Z,38.27
2024-05-09T12:24:14.438Z,38.35
2024-05-09T12:25:12.094Z,37.89
2024-05-09T12:26:12.057Z,37.77
2024-05-09T12:27:12.104Z,37.26
2024-05-09T12:28:12.135Z,37.21
2024-05-09T12:29:12.066Z,37.46
2024-05-09T12:30:20.741Z,37.59
2024-05-09T12:31:13.090Z,38.08
2024-05-09T12:32:12.088Z,38.00
2024-05-09T12:33:13.082Z,37.72
2024-05-09T12:34:12.280Z,37.64
2024-05-09T12:35:12.060Z,38.36
2024-05-09T12:36:12.074Z,38.08
2024-05-09T12:37:12.150Z,38.16
2024-05-09T12:38:12.080Z,38.32
2024-05-09T12:39:12.088Z,38.99
2024-05-09T12:41:12.096Z,39.12
2024-05-09T12:42:16.620Z,38.95
2024-05-09T12:43:13.144Z,39.05
2024-05-09T12:44:12.125Z,39.09
2024-05-09T12:45:12.099Z,39.27
2024-05-09T12:46:12.166Z,39.21
2024-05-09T12:47:12.107Z,38.83
2024-05-09T12:48:12.957Z,38.76
2024-05-09T12:49:13.760Z,38.19
2024-05-09T12:51:12.129Z,38.81
2024-05-09T12:52:12.129Z,39.38
2024-05-09T12:53:12.105Z,39.14
2024-05-09T12:54:12.129Z,39.07
2024-05-09T12:55:12.170Z,38.25
2024-05-09T12:56:12.145Z,38.19
2024-05-09T12:57:12.260Z,38.29
2024-05-09T12:58:12.362Z,38.60